»·PEaware :: DAL321 KMCO-KATL

DAL321 :: KMCO-KATL

FLIGHT INFORMATION

Flight Status: Arrived
Operator:
Delta Air Lines
More flights by this operator :: More flights under this callsign
Pilot: Brady L. (24952)
Aircraft: BOEING 737-900
(B739)
More flights by this aircraft type
Origin: KMCO Orlando Intl
United States
Destination: KATL Hartsfield-Jackson Atlanta
United States
More flights between these airports :: More routes between these airports
Route: JAG6 MATEO YULEE CHESN LAIRI LARZZ JJEDI2
File this flight plan on PilotEdge
Remarks: RMK / SIMBRIEF
Altitude:
(Current/Filed)
34,000ft
Speed:
(Current/Filed)
449kts
Departed: 10-Jun-19 01:46 PM
Arrived: 10-Jun-19 02:46 PM
Distance/Time
Traveled:
351nm/1:00
Distance/Time
To Go:
Arrived

Flight Plot

Page will automatically refresh every two minutes.

Flight plan parsing failed; only flown route is shown


Map Options




Map Legend


Flown Route
Filed Route
Departure Airport
Arrival Airport
Navaid (VOR, NDB)
Fix

Horizontal Profiles

Position Reports

Time Latitude Longitude Heading Altitude Ground
Speed
10-Jun-19 13:08 28.427289 -81.303655 111 86ft 0kts
10-Jun-19 13:09 28.427289 -81.303655 111 86ft 0kts
10-Jun-19 13:10 28.427289 -81.303655 111 86ft 0kts
10-Jun-19 13:11 28.427289 -81.303655 111 86ft 0kts
10-Jun-19 13:12 28.427289 -81.303655 111 86ft 0kts
10-Jun-19 13:13 28.427289 -81.303655 111 86ft 0kts
10-Jun-19 13:14 28.427289 -81.303655 111 86ft 0kts
10-Jun-19 13:15 28.427289 -81.303655 111 86ft 0kts
10-Jun-19 13:16 28.427289 -81.303655 111 86ft 0kts
10-Jun-19 13:17 28.427289 -81.303655 111 86ft 0kts
10-Jun-19 13:18 28.427289 -81.303655 111 86ft 0kts
10-Jun-19 13:19 28.427289 -81.303655 111 86ft 0kts
10-Jun-19 13:20 28.427289 -81.303655 111 86ft 0kts
10-Jun-19 13:21 28.427289 -81.303655 111 86ft 0kts
10-Jun-19 13:22 28.427289 -81.303655 111 86ft 0kts
10-Jun-19 13:23 28.427289 -81.303655 111 86ft 0kts
10-Jun-19 13:24 28.427289 -81.303655 111 86ft 0kts
10-Jun-19 13:25 28.427289 -81.303655 111 86ft 0kts
10-Jun-19 13:26 28.427289 -81.303655 111 86ft 0kts
10-Jun-19 13:27 28.427289 -81.303656 111 86ft 0kts
10-Jun-19 13:28 28.427404 -81.303993 111 86ft 2kts
10-Jun-19 13:29 28.427725 -81.304143 214 86ft 2kts
10-Jun-19 13:30 28.427199 -81.304452 196 86ft 0kts
10-Jun-19 13:31 28.427199 -81.304452 196 86ft 0kts
10-Jun-19 13:32 28.427199 -81.304452 196 86ft 0kts
10-Jun-19 13:33 28.427156 -81.304465 194 86ft 2kts
10-Jun-19 13:34 28.425011 -81.302228 119 86ft 17kts
10-Jun-19 13:35 28.426280 -81.298815 359 86ft 26kts
10-Jun-19 13:36 28.431368 -81.298017 359 90ft 18kts
10-Jun-19 13:37 28.437031 -81.298097 351 90ft 24kts
10-Jun-19 13:38 28.439329 -81.306004 274 88ft 37kts
10-Jun-19 13:39 28.439305 -81.314930 267 90ft 28kts
10-Jun-19 13:40 28.440687 -81.320030 359 90ft 20kts
10-Jun-19 13:41 28.444553 -81.320094 359 93ft 20kts
10-Jun-19 13:42 28.448170 -81.323314 270 90ft 13kts
10-Jun-19 13:43 28.448162 -81.325125 269 90ft 0kts
10-Jun-19 13:44 28.448160 -81.325293 269 90ft 7kts
10-Jun-19 13:45 28.444601 -81.326947 178 90ft 72kts
10-Jun-19 13:46 28.399031 -81.325851 214 3335ft 176kts
10-Jun-19 13:47 28.409813 -81.374303 337 6572ft 251kts
10-Jun-19 13:48 28.484878 -81.360911 13 8019ft 260kts
10-Jun-19 13:49 28.560664 -81.351742 355 7752ft 348kts
10-Jun-19 13:50 28.644880 -81.368732 345 7840ft 278kts
10-Jun-19 13:51 28.721238 -81.385791 346 7836ft 280kts
10-Jun-19 13:52 28.801077 -81.406586 351 7823ft 302kts
10-Jun-19 13:53 28.879869 -81.419206 346 7828ft 281kts
10-Jun-19 13:54 28.956917 -81.436351 346 7825ft 281kts
10-Jun-19 13:55 29.033883 -81.453123 346 7824ft 281kts
10-Jun-19 13:56 29.112956 -81.470297 346 8939ft 318kts
10-Jun-19 13:57 29.203023 -81.489534 346 10925ft 335kts
10-Jun-19 13:58 29.296318 -81.509623 346 12925ft 345kts
10-Jun-19 13:59 29.392486 -81.530407 347 15403ft 358kts
10-Jun-19 14:00 29.492328 -81.552034 347 18007ft 372kts
10-Jun-19 14:01 29.596291 -81.574598 347 20620ft 387kts
10-Jun-19 14:02 29.703797 -81.597982 347 23226ft 401kts
10-Jun-19 14:03 29.815622 -81.622363 348 25846ft 416kts
10-Jun-19 14:04 29.931474 -81.647680 348 28460ft 433kts
10-Jun-19 14:05 30.051870 -81.674035 348 31085ft 446kts
10-Jun-19 14:06 30.174673 -81.700996 348 33694ft 450kts
10-Jun-19 14:07 30.302553 -81.729168 348 34033ft 474kts
10-Jun-19 14:08 30.432550 -81.757863 348 34033ft 473kts
10-Jun-19 14:09 30.562442 -81.786458 348 34020ft 473kts
10-Jun-19 14:10 30.698335 -81.815274 353 34025ft 529kts
10-Jun-19 14:11 30.849993 -81.823413 346 33949ft 552kts
10-Jun-19 14:12 30.987802 -81.898755 328 33940ft 532kts
10-Jun-19 14:13 31.112741 -81.981675 328 33966ft 538kts
10-Jun-19 14:14 31.244254 -82.069108 328 33958ft 541kts
10-Jun-19 14:15 31.375326 -82.156472 328 33952ft 541kts
10-Jun-19 14:16 31.506271 -82.244010 328 33947ft 541kts
10-Jun-19 14:17 31.637327 -82.331895 328 33944ft 541kts
10-Jun-19 14:18 31.767407 -82.419400 328 33941ft 541kts
10-Jun-19 14:19 31.899137 -82.508299 328 33940ft 541kts
10-Jun-19 14:20 32.023149 -82.607301 317 33946ft 538kts
10-Jun-19 14:21 32.138702 -82.720806 318 33951ft 538kts
10-Jun-19 14:22 32.254647 -82.833434 318 33949ft 538kts
10-Jun-19 14:24 32.366970 -82.942831 318 32585ft 503kts
10-Jun-19 14:25 32.476613 -83.050023 319 31600ft 492kts
10-Jun-19 14:26 32.584836 -83.156163 319 28715ft 486kts
10-Jun-19 14:27 32.685774 -83.255436 319 25779ft 468kts
10-Jun-19 14:28 32.789513 -83.357800 319 25692ft 472kts
10-Jun-19 14:29 32.888489 -83.455753 319 22052ft 450kts
10-Jun-19 14:30 32.982431 -83.549001 319 18470ft 431kts
10-Jun-19 14:31 33.061414 -83.627560 320 15601ft 352kts
10-Jun-19 14:32 33.128531 -83.694531 319 14209ft 282kts
10-Jun-19 14:33 33.189039 -83.755055 320 12724ft 302kts
10-Jun-19 14:34 33.249844 -83.815991 320 10419ft 240kts
10-Jun-19 14:35 33.303006 -83.869332 320 10181ft 271kts
10-Jun-19 14:36 33.359805 -83.926425 320 9116ft 274kts
10-Jun-19 14:37 33.417325 -83.984339 319 7203ft 246kts
10-Jun-19 14:38 33.464842 -84.032250 319 6213ft 208kts
10-Jun-19 14:39 33.509057 -84.076901 320 5646ft 214kts
10-Jun-19 14:40 33.553310 -84.121652 320 5150ft 206kts
10-Jun-19 14:41 33.597170 -84.166061 320 4658ft 204kts
10-Jun-19 14:42 33.635904 -84.214805 287 3876ft 201kts
10-Jun-19 14:43 33.634935 -84.282554 269 3029ft 222kts
10-Jun-19 14:43 33.634560 -84.343844 271 2098ft 218kts
10-Jun-19 14:45 33.634686 -84.415513 272 965ft 129kts
10-Jun-19 14:45 33.634886 -84.429971 287 1008ft 14kts
10-Jun-19 14:46 33.635821 -84.435896 269 1013ft 21kts
10-Jun-19 14:48 33.637341 -84.440338 49 1019ft 10kts
10-Jun-19 14:48 33.637557 -84.439666 78 1017ft 0kts
10-Jun-19 14:50 33.637566 -84.439612 78 1017ft 0kts
10-Jun-19 14:50 33.637566 -84.439612 78 1017ft 0kts
10-Jun-19 14:51 33.637566 -84.439612 78 1017ft 0kts
10-Jun-19 14:52 33.634682 -84.405809 271 1023ft 148kts
10-Jun-19 14:53 33.634682 -84.407246 271 1003ft 145kts
10-Jun-19 14:54 33.634758 -84.427645 270 1003ft 52kts
10-Jun-19 14:55 33.634732 -84.423229 270 992ft 63kts
10-Jun-19 14:56 33.634681 -84.412216 271 969ft 135kts
10-Jun-19 14:57 33.634758 -84.427637 270 1003ft 53kts
10-Jun-19 14:58 33.635891 -84.439888 290 1018ft 19kts
10-Jun-19 14:59 33.637566 -84.439612 78 1017ft 0kts

Navigation Log

Ident Type
Flight plan parsing failed, navigation log unavailable